L'image de la webcam se met à jour toutes les 30s.
La jauge météo se met à jour toutes les 10s d'après les données envoyées par la station météo du club.
Les graphiques se mettent à jour toutes les 5min et ne s'affichent que si la station est en ligne
METAR de LFRD (Source NOAA)
LFRD 062130Z AUTO 26008KT 9999 FEW028 BKN041 OVC047 12/07 Q1008 TEMPO 4000 SHRA BKN015TCU

TAF de LFRD (Source NOAA)
TAF LFRD 061700Z 0618/0718 30015G25KT 9999 BKN040 BECMG 0619/0621 29010KT PROB40 TEMPO 0622/0711 4000 SHRA BKN015TCU BECMG 0712/0714 CAVOK
Ayez la webcam en fond d'écran de votre téléphone ou de votre tablette Android avec l'appli du club.